sensor_id;sensor_type;location;lat;lon;timestamp;P1;durP1;ratioP1;P2;durP2;ratioP2
6926;SDS011;3503;50.07605000;8.86719200;2024-02-26T00:11:02;7.23;;;3.00;;
6926;SDS011;3503;50.07605000;8.86719200;2024-02-26T00:26:05;5.23;;;3.40;;
6926;SDS011;3503;50.07605000;8.86719200;2024-02-26T00:41:09;8.20;;;3.87;;
6926;SDS011;3503;50.07605000;8.86719200;2024-02-26T00:56:12;7.43;;;3.27;;
6926;SDS011;3503;50.07605000;8.86719200;2024-02-26T01:11:15;5.80;;;2.57;;
6926;SDS011;3503;50.07605000;8.86719200;2024-02-26T01:26:19;2.67;;;1.40;;
6926;SDS011;3503;50.07605000;8.86719200;2024-02-26T01:41:23;3.00;;;1.50;;
6926;SDS011;3503;50.07605000;8.86719200;2024-02-26T01:56:26;3.30;;;2.20;;
6926;SDS011;3503;50.07605000;8.86719200;2024-02-26T02:11:33;4.60;;;1.40;;
6926;SDS011;3503;50.07605000;8.86719200;2024-02-26T02:26:36;3.23;;;1.90;;
6926;SDS011;3503;50.07605000;8.86719200;2024-02-26T02:41:39;2.80;;;1.70;;
6926;SDS011;3503;50.07605000;8.86719200;2024-02-26T02:56:43;3.07;;;2.00;;
6926;SDS011;3503;50.07605000;8.86719200;2024-02-26T03:11:46;3.77;;;2.00;;
6926;SDS011;3503;50.07605000;8.86719200;2024-02-26T03:26:49;3.53;;;2.20;;
6926;SDS011;3503;50.07605000;8.86719200;2024-02-26T03:41:53;5.50;;;3.20;;
6926;SDS011;3503;50.07605000;8.86719200;2024-02-26T03:56:57;5.10;;;2.20;;
6926;SDS011;3503;50.07605000;8.86719200;2024-02-26T04:12:00;5.70;;;2.90;;
6926;SDS011;3503;50.07605000;8.86719200;2024-02-26T04:27:03;4.57;;;2.90;;
6926;SDS011;3503;50.07605000;8.86719200;2024-02-26T04:42:06;4.50;;;2.40;;
6926;SDS011;3503;50.07605000;8.86719200;2024-02-26T04:57:09;3.43;;;2.20;;
6926;SDS011;3503;50.07605000;8.86719200;2024-02-26T05:12:12;6.97;;;2.60;;
6926;SDS011;3503;50.07605000;8.86719200;2024-02-26T05:27:15;4.77;;;2.50;;
6926;SDS011;3503;50.07605000;8.86719200;2024-02-26T05:42:18;3.80;;;2.43;;
6926;SDS011;3503;50.07605000;8.86719200;2024-02-26T05:57:21;5.80;;;3.10;;
6926;SDS011;3503;50.07605000;8.86719200;2024-02-26T06:12:25;6.57;;;2.90;;
6926;SDS011;3503;50.07605000;8.86719200;2024-02-26T06:27:32;4.60;;;3.03;;
6926;SDS011;3503;50.07605000;8.86719200;2024-02-26T06:42:36;5.37;;;2.20;;
6926;SDS011;3503;50.07605000;8.86719200;2024-02-26T06:57:39;5.07;;;2.40;;
6926;SDS011;3503;50.07605000;8.86719200;2024-02-26T07:12:42;12.63;;;3.10;;
6926;SDS011;3503;50.07605000;8.86719200;2024-02-26T07:27:45;7.43;;;3.53;;
6926;SDS011;3503;50.07605000;8.86719200;2024-02-26T07:42:48;10.40;;;3.77;;
6926;SDS011;3503;50.07605000;8.86719200;2024-02-26T07:57:50;11.50;;;3.63;;
6926;SDS011;3503;50.07605000;8.86719200;2024-02-26T08:12:53;6.40;;;4.43;;
6926;SDS011;3503;50.07605000;8.86719200;2024-02-26T08:27:56;10.33;;;4.50;;
6926;SDS011;3503;50.07605000;8.86719200;2024-02-26T08:42:59;8.10;;;4.67;;
6926;SDS011;3503;50.07605000;8.86719200;2024-02-26T08:58:02;8.90;;;4.90;;
6926;SDS011;3503;50.07605000;8.86719200;2024-02-26T09:13:05;11.90;;;5.63;;
6926;SDS011;3503;50.07605000;8.86719200;2024-02-26T09:28:08;7.80;;;4.73;;
6926;SDS011;3503;50.07605000;8.86719200;2024-02-26T09:43:12;11.83;;;5.80;;
6926;SDS011;3503;50.07605000;8.86719200;2024-02-26T09:58:16;9.30;;;4.90;;
6926;SDS011;3503;50.07605000;8.86719200;2024-02-26T10:13:20;9.90;;;5.40;;
6926;SDS011;3503;50.07605000;8.86719200;2024-02-26T10:28:24;8.90;;;4.70;;
6926;SDS011;3503;50.07605000;8.86719200;2024-02-26T10:43:27;7.33;;;4.60;;
6926;SDS011;3503;50.07605000;8.86719200;2024-02-26T10:58:30;6.80;;;5.03;;
6926;SDS011;3503;50.07605000;8.86719200;2024-02-26T11:13:33;9.80;;;4.30;;
6926;SDS011;3503;50.07605000;8.86719200;2024-02-26T11:28:40;9.10;;;5.10;;
6926;SDS011;3503;50.07605000;8.86719200;2024-02-26T11:43:50;6.83;;;4.70;;
6926;SDS011;3503;50.07605000;8.86719200;2024-02-26T11:58:56;7.60;;;4.70;;
6926;SDS011;3503;50.07605000;8.86719200;2024-02-26T12:13:59;11.80;;;6.40;;
6926;SDS011;3503;50.07605000;8.86719200;2024-02-26T12:29:03;5.60;;;4.10;;
6926;SDS011;3503;50.07605000;8.86719200;2024-02-26T12:44:06;6.90;;;4.07;;
6926;SDS011;3503;50.07605000;8.86719200;2024-02-26T12:59:10;5.80;;;3.53;;
6926;SDS011;3503;50.07605000;8.86719200;2024-02-26T13:14:20;5.77;;;3.77;;
6926;SDS011;3503;50.07605000;8.86719200;2024-02-26T13:29:23;6.70;;;4.13;;
6926;SDS011;3503;50.07605000;8.86719200;2024-02-26T13:44:27;11.90;;;4.50;;
6926;SDS011;3503;50.07605000;8.86719200;2024-02-26T13:59:30;10.27;;;4.00;;
6926;SDS011;3503;50.07605000;8.86719200;2024-02-26T14:14:33;8.07;;;4.17;;
6926;SDS011;3503;50.07605000;8.86719200;2024-02-26T14:29:40;4.90;;;3.23;;
6926;SDS011;3503;50.07605000;8.86719200;2024-02-26T14:44:43;5.17;;;3.27;;
6926;SDS011;3503;50.07605000;8.86719200;2024-02-26T14:59:47;3.60;;;2.33;;
6926;SDS011;3503;50.07605000;8.86719200;2024-02-26T15:14:51;4.40;;;2.43;;
6926;SDS011;3503;50.07605000;8.86719200;2024-02-26T15:29:54;4.83;;;3.50;;
6926;SDS011;3503;50.07605000;8.86719200;2024-02-26T15:44:59;5.70;;;3.23;;
6926;SDS011;3503;50.07605000;8.86719200;2024-02-26T16:00:02;5.57;;;3.40;;
6926;SDS011;3503;50.07605000;8.86719200;2024-02-26T16:15:11;8.10;;;4.40;;
6926;SDS011;3503;50.07605000;8.86719200;2024-02-26T16:30:14;6.47;;;2.80;;
6926;SDS011;3503;50.07605000;8.86719200;2024-02-26T16:45:17;4.83;;;2.70;;
6926;SDS011;3503;50.07605000;8.86719200;2024-02-26T17:00:22;6.47;;;3.17;;
6926;SDS011;3503;50.07605000;8.86719200;2024-02-26T17:15:25;3.90;;;2.63;;
6926;SDS011;3503;50.07605000;8.86719200;2024-02-26T17:30:28;12.77;;;6.90;;
6926;SDS011;3503;50.07605000;8.86719200;2024-02-26T17:45:31;10.27;;;4.63;;
6926;SDS011;3503;50.07605000;8.86719200;2024-02-26T18:00:36;8.30;;;3.73;;
6926;SDS011;3503;50.07605000;8.86719200;2024-02-26T18:15:38;7.40;;;5.00;;
6926;SDS011;3503;50.07605000;8.86719200;2024-02-26T18:30:41;9.13;;;5.70;;
6926;SDS011;3503;50.07605000;8.86719200;2024-02-26T18:45:47;15.40;;;7.37;;
6926;SDS011;3503;50.07605000;8.86719200;2024-02-26T19:00:50;8.60;;;5.77;;
6926;SDS011;3503;50.07605000;8.86719200;2024-02-26T19:15:53;12.83;;;7.43;;
6926;SDS011;3503;50.07605000;8.86719200;2024-02-26T19:30:55;9.80;;;5.90;;
6926;SDS011;3503;50.07605000;8.86719200;2024-02-26T19:45:58;10.93;;;6.73;;
6926;SDS011;3503;50.07605000;8.86719200;2024-02-26T20:01:02;9.20;;;6.40;;
6926;SDS011;3503;50.07605000;8.86719200;2024-02-26T20:16:06;14.70;;;7.93;;
6926;SDS011;3503;50.07605000;8.86719200;2024-02-26T20:31:09;14.43;;;9.27;;
6926;SDS011;3503;50.07605000;8.86719200;2024-02-26T20:46:12;14.47;;;10.40;;
6926;SDS011;3503;50.07605000;8.86719200;2024-02-26T21:01:14;15.33;;;9.13;;
6926;SDS011;3503;50.07605000;8.86719200;2024-02-26T21:16:17;14.57;;;10.57;;
6926;SDS011;3503;50.07605000;8.86719200;2024-02-26T21:31:20;19.07;;;12.40;;
6926;SDS011;3503;50.07605000;8.86719200;2024-02-26T21:46:23;18.43;;;12.80;;
6926;SDS011;3503;50.07605000;8.86719200;2024-02-26T22:01:26;25.40;;;15.40;;
6926;SDS011;3503;50.07605000;8.86719200;2024-02-26T22:16:29;23.93;;;15.23;;
6926;SDS011;3503;50.07605000;8.86719200;2024-02-26T22:31:32;29.40;;;16.30;;
6926;SDS011;3503;50.07605000;8.86719200;2024-02-26T22:46:38;23.27;;;15.47;;
6926;SDS011;3503;50.07605000;8.86719200;2024-02-26T23:01:41;23.80;;;15.90;;
6926;SDS011;3503;50.07605000;8.86719200;2024-02-26T23:16:47;29.50;;;16.50;;
6926;SDS011;3503;50.07605000;8.86719200;2024-02-26T23:31:51;26.33;;;17.17;;
6926;SDS011;3503;50.07605000;8.86719200;2024-02-26T23:46:54;27.97;;;18.00;;
